Time;durP1;ratioP1;P1;durP2;ratioP2;P2;SDS_P1;SDS_P2;PMS_P1;PMS_P2;Temp;Humidity;BMP_temperature;BMP_pressure;BME280_temperature;BME280_humidity;BME280_pressure;Samples;Min_cycle;Max_cycle;Signal;HPM_P1;HPM_P2
2023/07/19 00:02:03;;;;;;;1.60;1.50;;;24.50;90.20;;;;;;5072969;28;20452;-92
2023/07/19 00:04:30;;;;;;;2.00;1.80;;;24.50;90.30;;;;;;5073838;28;20471;-91
2023/07/19 00:06:57;;;;;;;2.20;1.63;;;24.50;90.30;;;;;;5072778;28;20526;-92
2023/07/19 00:09:24;;;;;;;1.70;1.60;;;24.50;90.40;;;;;;5073040;28;20442;-92
2023/07/19 00:12:24;;;;;;;1.90;1.80;;;24.50;90.40;;;;;;5073659;28;20441;-92
2023/07/19 00:14:51;;;;;;;1.83;1.73;;;24.50;90.40;;;;;;5072821;28;20505;-92
2023/07/19 00:17:18;;;;;;;1.83;1.70;;;24.50;90.50;;;;;;5073014;28;20823;-92
2023/07/19 00:19:44;;;;;;;1.93;1.83;;;24.50;90.50;;;;;;5075191;28;20445;-91
2023/07/19 00:22:11;;;;;;;1.60;1.50;;;24.50;90.60;;;;;;5076582;28;20459;-91
2023/07/19 00:24:38;;;;;;;1.60;1.33;;;24.50;90.70;;;;;;5076789;28;20546;-91
2023/07/19 00:27:05;;;;;;;2.50;2.00;;;24.50;90.70;;;;;;5076362;28;20449;-91
2023/07/19 00:29:34;;;;;;;2.10;1.90;;;24.50;90.50;;;;;;5076771;28;20451;-92
2023/07/19 00:32:01;;;;;;;2.20;1.83;;;24.50;90.50;;;;;;5076482;28;20534;-91
2023/07/19 00:34:27;;;;;;;1.87;1.77;;;24.50;90.50;;;;;;5076002;28;20535;-92
2023/07/19 00:36:55;;;;;;;1.87;1.77;;;24.50;90.60;;;;;;5076474;28;20503;-92
2023/07/19 00:39:21;;;;;;;2.60;1.70;;;24.50;90.70;;;;;;5076337;28;20454;-92
2023/07/19 00:41:48;;;;;;;2.00;1.90;;;24.50;90.80;;;;;;5075943;28;20808;-91
2023/07/19 00:44:15;;;;;;;1.90;1.70;;;24.50;90.70;;;;;;5076232;28;20456;-92
2023/07/19 00:46:43;;;;;;;1.93;1.73;;;24.50;90.80;;;;;;5076786;28;20630;-93
2023/07/19 00:49:11;;;;;;;1.73;1.63;;;24.50;91.00;;;;;;5076078;28;20472;-92
2023/07/19 00:51:39;;;;;;;2.00;1.90;;;24.50;91.00;;;;;;5075724;28;20930;-92
2023/07/19 00:54:08;;;;;;;1.97;1.87;;;24.50;91.00;;;;;;5076098;28;20525;-91
2023/07/19 00:56:35;;;;;;;1.73;1.63;;;24.50;91.10;;;;;;5075635;28;20484;-91
2023/07/19 00:59:03;;;;;;;2.23;2.03;;;24.50;91.10;;;;;;5075535;28;20445;-92
2023/07/19 01:01:32;;;;;;;1.70;1.60;;;24.50;90.90;;;;;;5075725;28;20456;-92
2023/07/19 01:04:00;;;;;;;2.30;1.80;;;24.50;91.20;;;;;;5075477;28;20543;-92
2023/07/19 01:06:27;;;;;;;1.73;1.63;;;24.50;91.30;;;;;;5067673;28;20454;-92
2023/07/19 01:08:54;;;;;;;2.23;2.03;;;24.50;91.30;;;;;;5075343;28;20509;-92
2023/07/19 01:11:21;;;;;;;1.97;1.80;;;24.50;91.40;;;;;;5075768;28;20478;-92
2023/07/19 01:13:51;;;;;;;2.10;2.00;;;24.50;91.40;;;;;;5075511;28;20975;-92
2023/07/19 01:16:18;;;;;;;3.00;2.03;;;24.50;91.50;;;;;;5075278;28;20493;-92
2023/07/19 01:18:45;;;;;;;2.80;1.70;;;24.60;91.50;;;;;;5075113;28;20961;-91
2023/07/19 01:21:14;;;;;;;1.83;1.60;;;24.50;91.40;;;;;;5075533;28;20864;-92
2023/07/19 01:23:42;;;;;;;3.60;1.80;;;24.50;91.40;;;;;;5075566;28;20538;-92
2023/07/19 01:26:09;;;;;;;1.50;1.40;;;24.50;91.50;;;;;;5075432;28;20468;-92
2023/07/19 01:28:36;;;;;;;2.03;1.70;;;24.50;91.50;;;;;;5075430;28;20441;-91
2023/07/19 01:31:06;;;;;;;2.10;1.90;;;24.40;91.20;;;;;;5075047;28;20482;-92
2023/07/19 01:33:33;;;;;;;1.87;1.77;;;24.50;91.20;;;;;;5075231;28;20448;-92
2023/07/19 01:36:01;;;;;;;1.60;1.50;;;24.50;91.40;;;;;;5074803;28;20480;-92
2023/07/19 01:38:27;;;;;;;1.90;1.80;;;24.50;91.50;;;;;;5074841;28;20533;-91
2023/07/19 01:40:56;;;;;;;1.63;1.53;;;24.50;91.60;;;;;;5075083;28;20870;-92
2023/07/19 01:43:22;;;;;;;1.90;1.80;;;24.50;91.90;;;;;;5074512;28;20445;-92
2023/07/19 01:45:49;;;;;;;1.87;1.77;;;24.50;91.80;;;;;;5074838;28;20544;-91
2023/07/19 01:48:17;;;;;;;1.70;1.60;;;24.50;91.90;;;;;;5075061;28;20440;-92
2023/07/19 01:50:47;;;;;;;1.67;1.57;;;24.50;91.70;;;;;;5075185;28;20442;-92
2023/07/19 01:53:14;;;;;;;1.70;1.60;;;24.50;91.80;;;;;;5074879;28;20433;-92
2023/07/19 01:55:41;;;;;;;1.93;1.73;;;24.50;91.90;;;;;;5074514;28;20476;-92
2023/07/19 01:58:09;;;;;;;1.77;1.67;;;24.50;91.80;;;;;;5074585;28;20445;-92
2023/07/19 02:00:36;;;;;;;1.77;1.67;;;24.50;91.80;;;;;;5074522;28;20452;-91
2023/07/19 02:03:03;;;;;;;1.40;1.30;;;24.50;91.80;;;;;;5074695;28;20465;-92
2023/07/19 02:05:30;;;;;;;1.40;1.30;;;24.50;91.80;;;;;;5074806;28;20876;-92
2023/07/19 02:07:59;;;;;;;1.90;1.73;;;24.50;91.90;;;;;;5074304;28;20443;-93
2023/07/19 02:10:29;;;;;;;1.93;1.73;;;24.50;92.00;;;;;;5066544;28;20441;-92
2023/07/19 02:12:55;;;;;;;1.80;1.70;;;24.50;92.10;;;;;;5074411;28;20445;-92
2023/07/19 02:15:24;;;;;;;2.13;1.90;;;24.50;92.10;;;;;;5074643;28;20872;-92
2023/07/19 02:17:51;;;;;;;1.77;1.63;;;24.50;92.00;;;;;;5074761;28;20465;-92
2023/07/19 02:20:19;;;;;;;1.90;1.70;;;24.50;91.90;;;;;;5074027;28;20491;-92
2023/07/19 02:22:47;;;;;;;2.10;1.80;;;24.50;92.00;;;;;;5074989;28;20450;-92
2023/07/19 02:25:14;;;;;;;2.00;1.90;;;24.50;92.10;;;;;;5074777;28;20452;-91
2023/07/19 02:27:41;;;;;;;1.50;1.40;;;24.50;92.10;;;;;;5074573;28;20473;-94
2023/07/19 02:30:09;;;;;;;1.80;1.43;;;24.50;92.10;;;;;;5073854;28;20511;-92
2023/07/19 02:32:37;;;;;;;1.70;1.60;;;24.50;92.10;;;;;;5074243;28;20451;-92
2023/07/19 02:35:05;;;;;;;2.10;1.90;;;24.50;92.10;;;;;;5073751;28;20499;-92
2023/07/19 02:37:31;;;;;;;2.00;1.80;;;24.50;92.10;;;;;;5073537;28;20497;-91
2023/07/19 02:39:58;;;;;;;1.90;1.77;;;24.50;92.10;;;;;;5073720;28;20525;-91
2023/07/19 02:42:25;;;;;;;1.87;1.67;;;24.40;92.10;;;;;;5073782;28;20438;-92
2023/07/19 02:44:52;;;;;;;2.37;1.90;;;24.50;92.30;;;;;;5073715;28;20450;-91
2023/07/19 02:47:19;;;;;;;2.27;2.00;;;24.40;92.20;;;;;;5073784;28;20489;-92
2023/07/19 02:49:48;;;;;;;1.73;1.63;;;24.50;92.30;;;;;;5073824;28;20436;-92
2023/07/19 02:52:15;;;;;;;2.43;2.00;;;24.40;92.40;;;;;;5073454;28;20943;-92
2023/07/19 02:54:41;;;;;;;1.83;1.70;;;24.40;92.30;;;;;;5073975;28;20956;-92
2023/07/19 02:57:08;;;;;;;1.90;1.57;;;24.40;92.30;;;;;;5073688;28;20570;-92
2023/07/19 02:59:35;;;;;;;1.43;1.30;;;24.40;92.20;;;;;;5073506;28;20888;-93
2023/07/19 03:02:03;;;;;;;1.90;1.70;;;24.40;92.30;;;;;;5073733;28;20449;-92
2023/07/19 03:04:30;;;;;;;1.87;1.77;;;24.40;92.00;;;;;;5060302;28;20446;-91
2023/07/19 03:06:59;;;;;;;1.60;1.50;;;24.50;92.00;;;;;;5053787;28;20459;-92
2023/07/19 03:09:26;;;;;;;1.83;1.73;;;24.40;92.00;;;;;;5065775;28;20499;-92
2023/07/19 03:11:53;;;;;;;1.90;1.80;;;24.40;91.80;;;;;;5073769;28;20448;-92
2023/07/19 03:14:20;;;;;;;2.20;2.00;;;24.40;91.80;;;;;;5073797;28;20476;-91
2023/07/19 03:16:47;;;;;;;2.10;1.80;;;24.40;91.70;;;;;;5073819;28;20481;-93
2023/07/19 03:19:14;;;;;;;1.73;1.63;;;24.50;91.70;;;;;;5073592;28;20488;-92
2023/07/19 03:21:41;;;;;;;2.00;1.90;;;24.40;91.60;;;;;;5073372;28;20437;-93
2023/07/19 03:24:11;;;;;;;2.07;1.87;;;24.40;91.70;;;;;;5073480;28;20472;-92
2023/07/19 03:26:38;;;;;;;1.83;1.47;;;24.40;91.70;;;;;;5073939;28;20443;-94
2023/07/19 03:29:05;;;;;;;1.73;1.63;;;24.40;91.90;;;;;;5073629;28;20793;-92
2023/07/19 03:31:32;;;;;;;1.57;1.47;;;24.40;91.80;;;;;;5073986;28;20449;-92
2023/07/19 03:33:59;;;;;;;1.60;1.50;;;24.40;92.00;;;;;;5073841;28;20454;-92
2023/07/19 03:36:25;;;;;;;2.10;1.90;;;24.40;91.70;;;;;;5073104;28;20484;-92
2023/07/19 03:38:52;;;;;;;1.67;1.57;;;24.40;91.90;;;;;;5073315;28;20536;-92
2023/07/19 03:41:21;;;;;;;1.93;1.83;;;24.40;91.80;;;;;;5073260;28;20448;-93
2023/07/19 03:43:47;;;;;;;2.07;1.93;;;24.40;91.70;;;;;;5073676;28;20540;-93
2023/07/19 03:46:14;;;;;;;2.00;1.90;;;24.40;91.70;;;;;;5072776;28;20997;-92
2023/07/19 03:48:41;;;;;;;1.80;1.70;;;24.40;91.80;;;;;;5073808;28;20506;-92
2023/07/19 03:51:08;;;;;;;1.60;1.33;;;24.40;91.80;;;;;;5073674;28;20539;-93
2023/07/19 03:53:35;;;;;;;2.10;1.90;;;24.40;91.90;;;;;;5074339;28;20935;-92
2023/07/19 03:56:02;;;;;;;2.10;1.73;;;24.40;91.90;;;;;;5077273;28;20498;-93
2023/07/19 03:58:31;;;;;;;1.70;1.60;;;24.40;92.00;;;;;;5077482;28;20538;-92
2023/07/19 04:00:59;;;;;;;1.77;1.67;;;24.40;91.90;;;;;;5076711;28;20975;-92
2023/07/19 04:03:27;;;;;;;1.83;1.73;;;24.40;92.10;;;;;;5076920;28;20447;-92
2023/07/19 04:05:57;;;;;;;1.60;1.50;;;24.40;92.00;;;;;;5076884;28;20451;-92
2023/07/19 04:08:24;;;;;;;2.03;1.93;;;24.40;91.90;;;;;;5077724;28;20497;-92
2023/07/19 04:10:51;;;;;;;1.83;1.63;;;24.40;91.90;;;;;;5076674;28;20454;-92
2023/07/19 04:13:18;;;;;;;2.17;1.70;;;24.40;91.90;;;;;;5077148;28;20452;-93
2023/07/19 04:15:46;;;;;;;2.03;1.93;;;24.40;91.90;;;;;;5076622;28;20837;-93
2023/07/19 04:18:13;;;;;;;1.80;1.70;;;24.40;92.10;;;;;;5076845;28;20444;-92
2023/07/19 04:20:40;;;;;;;1.63;1.53;;;24.40;92.10;;;;;;5076912;28;20445;-92
2023/07/19 04:23:07;;;;;;;1.60;1.50;;;24.40;92.10;;;;;;5076493;28;20438;-92
2023/07/19 04:25:34;;;;;;;1.80;1.70;;;24.40;92.10;;;;;;5076918;28;20918;-92
2023/07/19 04:28:01;;;;;;;2.10;1.50;;;24.40;92.10;;;;;;5077220;28;20544;-93
2023/07/19 04:30:28;;;;;;;1.80;1.70;;;24.40;92.10;;;;;;5076923;28;20446;-92
2023/07/19 04:32:56;;;;;;;1.77;1.67;;;24.40;92.00;;;;;;5076686;28;20442;-93
2023/07/19 04:35:23;;;;;;;1.70;1.60;;;24.40;92.00;;;;;;5076337;28;20450;-93
2023/07/19 04:37:51;;;;;;;1.90;1.80;;;24.40;91.90;;;;;;5076566;28;20585;-93
2023/07/19 04:40:18;;;;;;;1.80;1.70;;;24.40;91.90;;;;;;5076890;28;20502;-93
2023/07/19 04:42:45;;;;;;;1.77;1.67;;;24.40;91.90;;;;;;5077037;28;20535;-93
2023/07/19 04:45:13;;;;;;;1.70;1.47;;;24.40;91.90;;;;;;5076152;28;20451;-93
2023/07/19 04:47:39;;;;;;;2.23;2.03;;;24.40;92.10;;;;;;5075966;28;20470;-92
2023/07/19 04:50:10;;;;;;;2.07;1.80;;;24.40;92.00;;;;;;5076028;28;20446;-93
2023/07/19 04:52:37;;;;;;;2.70;1.73;;;24.40;92.10;;;;;;5076111;28;20453;-94
2023/07/19 04:55:05;;;;;;;3.20;1.83;;;24.40;92.10;;;;;;5076050;28;20803;-93
2023/07/19 04:57:32;;;;;;;1.80;1.70;;;24.40;92.00;;;;;;5075661;28;20475;-93
2023/07/19 04:59:59;;;;;;;2.20;2.00;;;24.40;92.50;;;;;;5076089;28;20533;-92
2023/07/19 05:02:26;;;;;;;2.07;1.90;;;24.40;92.10;;;;;;5076602;28;20530;-91
2023/07/19 05:05:04;;;;;;;2.30;2.10;;;24.40;92.10;;;;;;5075435;28;20494;-95
2023/07/19 05:07:32;;;;;;;4.60;2.90;;;24.40;91.80;;;;;;5076229;28;20446;-92
2023/07/19 05:10:00;;;;;;;10.60;3.27;;;24.40;91.60;;;;;;5075575;28;20450;-92
2023/07/19 05:12:27;;;;;;;7.10;3.17;;;24.40;91.10;;;;;;5076079;28;20440;-93
2023/07/19 05:14:56;;;;;;;5.10;3.17;;;24.40;90.80;;;;;;5076201;28;20454;-94
2023/07/19 05:17:24;;;;;;;3.20;2.90;;;24.20;90.60;;;;;;5076073;28;20975;-93
2023/07/19 05:19:51;;;;;;;5.23;3.57;;;24.20;90.90;;;;;;5077281;28;20547;-93
2023/07/19 05:22:19;;;;;;;3.50;2.80;;;24.10;90.50;;;;;;5077529;28;20468;-91
2023/07/19 05:24:48;;;;;;;4.70;3.33;;;24.10;90.10;;;;;;5076145;28;20440;-90
2023/07/19 05:27:17;;;;;;;3.63;3.20;;;24.00;90.20;;;;;;5076766;28;20446;-93
2023/07/19 05:29:44;;;;;;;5.80;3.63;;;24.00;90.10;;;;;;5076875;28;20438;-93
2023/07/19 05:32:12;;;;;;;6.43;3.37;;;23.90;90.30;;;;;;5076536;28;20909;-93
2023/07/19 05:34:39;;;;;;;4.60;2.90;;;24.00;90.90;;;;;;5075552;28;20494;-91
2023/07/19 05:37:07;;;;;;;4.33;2.80;;;23.80;90.50;;;;;;5075463;28;21094;-91
2023/07/19 05:39:34;;;;;;;5.17;3.00;;;23.80;90.40;;;;;;5075349;28;20944;-92
2023/07/19 05:42:02;;;;;;;4.57;3.20;;;23.80;90.40;;;;;;5075645;28;20535;-91
2023/07/19 05:44:29;;;;;;;7.37;2.93;;;23.80;90.20;;;;;;5075927;28;20535;-90
2023/07/19 05:46:56;;;;;;;3.53;3.10;;;23.80;90.30;;;;;;5076018;28;20471;-89
2023/07/19 05:49:34;;;;;;;6.27;4.10;;;23.80;90.70;;;;;;5075527;28;20543;-95
2023/07/19 05:52:18;;;;;;;4.43;2.63;;;23.80;90.60;;;;;;5075544;28;20456;-92
2023/07/19 05:54:52;;;;;;;5.23;2.87;;;23.80;90.60;;;;;;5077579;28;20474;-96
2023/07/19 05:57:31;;;;;;;4.17;3.13;;;23.80;91.10;;;;;;5075453;28;20553;-92
2023/07/19 06:00:02;;;;;;;8.30;3.80;;;23.80;91.00;;;;;;5074185;28;20981;-83
2023/07/19 06:02:29;;;;;;;7.33;3.87;;;23.70;90.70;;;;;;5075288;28;20461;-90
2023/07/19 06:04:57;;;;;;;3.53;3.23;;;23.70;90.80;;;;;;5074413;28;20811;-87
2023/07/19 06:07:25;;;;;;;4.57;3.17;;;23.70;90.80;;;;;;5065394;28;20805;-88
2023/07/19 06:09:52;;;;;;;4.57;3.53;;;23.80;91.00;;;;;;5075467;28;20439;-88
2023/07/19 06:12:21;;;;;;;5.80;3.13;;;23.70;91.00;;;;;;5076028;28;20505;-89
2023/07/19 06:14:47;;;;;;;3.67;3.20;;;23.70;90.90;;;;;;5074948;28;20448;-88
2023/07/19 06:17:14;;;;;;;10.70;4.10;;;23.70;91.10;;;;;;5073157;28;20489;-89
2023/07/19 06:19:41;;;;;;;5.50;3.70;;;23.70;91.00;;;;;;5074040;28;20444;-88
2023/07/19 06:22:08;;;;;;;8.63;3.30;;;23.70;91.40;;;;;;5075418;28;20512;-91
2023/07/19 06:24:36;;;;;;;7.37;3.60;;;23.70;91.40;;;;;;5075790;28;20858;-88
2023/07/19 06:27:03;;;;;;;4.53;3.23;;;23.70;91.20;;;;;;5074832;28;20470;-88
2023/07/19 06:29:31;;;;;;;11.37;4.00;;;23.70;91.40;;;;;;5074152;28;20457;-88
2023/07/19 06:31:58;;;;;;;8.00;3.93;;;23.70;91.40;;;;;;5073917;28;20483;-90
2023/07/19 06:34:25;;;;;;;9.43;4.23;;;23.70;91.20;;;;;;5073959;28;20443;-90
2023/07/19 06:36:52;;;;;;;5.87;3.07;;;23.70;91.20;;;;;;5073869;28;20593;-89
2023/07/19 06:39:19;;;;;;;5.80;2.97;;;23.70;91.40;;;;;;5074141;28;20445;-93
2023/07/19 06:42:11;;;;;;;5.17;3.10;;;23.80;91.40;;;;;;5075181;28;20501;-94
2023/07/19 06:44:40;;;;;;;4.03;3.17;;;23.90;91.60;;;;;;5074668;28;20917;-88
2023/07/19 06:47:07;;;;;;;5.50;2.70;;;23.90;91.80;;;;;;5074059;28;20555;-89
2023/07/19 06:49:34;;;;;;;6.70;2.77;;;24.00;91.40;;;;;;5073968;28;20862;-89
2023/07/19 06:52:01;;;;;;;3.30;2.50;;;24.00;91.40;;;;;;5073695;28;20457;-89
2023/07/19 06:54:28;;;;;;;2.53;2.33;;;24.00;91.30;;;;;;5074145;28;20795;-90
2023/07/19 06:56:54;;;;;;;3.30;2.17;;;24.10;90.90;;;;;;5073835;28;20546;-89
2023/07/19 06:59:21;;;;;;;3.47;2.90;;;24.10;91.30;;;;;;5073983;28;20447;-89
2023/07/19 07:01:49;;;;;;;2.97;2.60;;;24.10;91.30;;;;;;5074138;28;20539;-89
2023/07/19 07:04:16;;;;;;;4.40;2.13;;;24.20;91.30;;;;;;5074107;28;21327;-90
2023/07/19 07:06:43;;;;;;;2.17;1.97;;;24.10;91.30;;;;;;5073861;28;20447;-86
2023/07/19 07:09:10;;;;;;;2.83;2.50;;;24.10;90.80;;;;;;5073404;28;20442;-87
2023/07/19 07:11:37;;;;;;;9.23;3.23;;;24.10;90.50;;;;;;5073417;28;20444;-89
2023/07/19 07:14:04;;;;;;;3.50;2.80;;;24.10;90.70;;;;;;5073449;28;20445;-89
2023/07/19 07:16:30;;;;;;;3.60;2.50;;;24.20;90.60;;;;;;5073361;28;20460;-90
2023/07/19 07:18:59;;;;;;;5.50;3.13;;;24.20;90.60;;;;;;5073353;28;20449;-89
2023/07/19 07:21:26;;;;;;;9.13;3.23;;;24.20;90.50;;;;;;5073607;28;20819;-89
2023/07/19 07:23:53;;;;;;;4.27;3.37;;;24.20;90.40;;;;;;5073449;28;20817;-91
2023/07/19 07:26:21;;;;;;;8.70;3.37;;;24.20;90.40;;;;;;5073473;28;20433;-89
2023/07/19 07:28:48;;;;;;;4.40;2.80;;;24.20;90.20;;;;;;5076431;28;20443;-90
2023/07/19 07:31:14;;;;;;;5.57;3.53;;;24.30;90.30;;;;;;5077500;28;20528;-90
2023/07/19 07:33:41;;;;;;;9.93;2.90;;;24.20;90.20;;;;;;5077101;28;20443;-89
2023/07/19 07:36:09;;;;;;;3.37;2.60;;;24.20;90.40;;;;;;5076869;28;20547;-89
2023/07/19 07:38:37;;;;;;;6.63;3.60;;;24.20;90.20;;;;;;5076965;28;20553;-90
2023/07/19 07:41:05;;;;;;;3.00;2.33;;;24.20;90.20;;;;;;5077051;28;20445;-89
2023/07/19 07:43:32;;;;;;;3.07;2.80;;;24.20;90.30;;;;;;5077130;28;20440;-90
2023/07/19 07:45:59;;;;;;;6.33;2.77;;;24.20;90.20;;;;;;5077159;28;20456;-90
2023/07/19 07:48:26;;;;;;;2.57;2.37;;;24.20;90.30;;;;;;5077163;28;20451;-87
2023/07/19 07:50:53;;;;;;;3.00;2.23;;;24.20;90.40;;;;;;5077303;28;20543;-90
2023/07/19 07:53:22;;;;;;;5.33;2.73;;;24.30;90.30;;;;;;5076805;28;20453;-89
2023/07/19 07:55:49;;;;;;;2.57;2.23;;;24.30;90.30;;;;;;5077128;28;20538;-90
2023/07/19 07:58:17;;;;;;;2.27;1.70;;;24.30;90.30;;;;;;5076539;28;21008;-89
2023/07/19 08:00:44;;;;;;;3.33;2.20;;;24.30;90.20;;;;;;5076471;28;20448;-89
2023/07/19 08:03:11;;;;;;;2.67;2.30;;;24.30;90.10;;;;;;5076479;28;20508;-90
2023/07/19 08:05:38;;;;;;;2.57;2.30;;;24.30;90.00;;;;;;5076465;28;20468;-90
2023/07/19 08:08:07;;;;;;;2.60;2.40;;;24.40;90.30;;;;;;5076220;28;20445;-89
2023/07/19 08:10:37;;;;;;;7.00;2.70;;;24.30;90.30;;;;;;5076162;28;20543;-90
2023/07/19 08:13:04;;;;;;;3.13;2.63;;;24.30;90.20;;;;;;5076424;28;20813;-90
2023/07/19 08:15:31;;;;;;;2.60;2.17;;;24.40;90.30;;;;;;5076801;28;20465;-90
2023/07/19 08:17:58;;;;;;;2.23;2.03;;;24.40;90.30;;;;;;5076602;28;20833;-89
2023/07/19 08:20:25;;;;;;;2.50;2.27;;;24.40;90.00;;;;;;5076929;28;20796;-90
2023/07/19 08:22:52;;;;;;;2.80;2.30;;;24.40;89.90;;;;;;5077503;28;20533;-90
2023/07/19 08:25:20;;;;;;;2.20;1.90;;;24.40;90.00;;;;;;5076298;28;20936;-89
2023/07/19 08:27:48;;;;;;;3.10;2.17;;;24.40;90.10;;;;;;5076164;28;20476;-90
2023/07/19 08:30:16;;;;;;;4.10;2.67;;;24.40;90.10;;;;;;5076361;28;20457;-90
2023/07/19 08:32:44;;;;;;;5.40;2.17;;;24.50;90.00;;;;;;5076356;28;21026;-89
2023/07/19 08:35:11;;;;;;;2.83;2.40;;;24.50;90.00;;;;;;5076416;28;20838;-89
2023/07/19 08:37:38;;;;;;;2.60;2.17;;;24.50;90.00;;;;;;5075898;28;20485;-89
2023/07/19 08:40:07;;;;;;;2.90;1.87;;;24.50;89.90;;;;;;5075495;28;20473;-89
2023/07/19 08:42:34;;;;;;;2.70;2.40;;;24.50;89.90;;;;;;5076115;28;20456;-92
2023/07/19 08:45:03;;;;;;;2.40;1.70;;;24.50;89.90;;;;;;5076187;28;20550;-90
2023/07/19 08:47:30;;;;;;;1.93;1.83;;;24.50;89.80;;;;;;5076062;28;20471;-90
2023/07/19 08:49:59;;;;;;;1.80;1.70;;;24.50;89.80;;;;;;5076041;28;20450;-91
2023/07/19 08:52:28;;;;;;;3.80;2.07;;;24.50;89.80;;;;;;5076512;28;20456;-90
2023/07/19 08:54:55;;;;;;;2.30;2.10;;;24.50;89.80;;;;;;5075717;28;20448;-89
2023/07/19 08:57:22;;;;;;;3.50;2.37;;;24.60;89.70;;;;;;5075894;28;20475;-89
2023/07/19 08:59:49;;;;;;;2.67;1.83;;;24.60;89.80;;;;;;5075548;28;20452;-90
2023/07/19 09:02:17;;;;;;;3.00;2.00;;;24.60;89.70;;;;;;5075865;28;20450;-90
2023/07/19 09:05:05;;;;;;;2.07;1.87;;;24.60;89.80;;;;;;5075440;28;20456;-90
2023/07/19 09:07:33;;;;;;;1.53;1.43;;;24.60;89.60;;;;;;5075885;28;20531;-90
2023/07/19 09:10:00;;;;;;;2.20;1.80;;;24.60;89.50;;;;;;5075732;28;20441;-89
2023/07/19 09:12:34;;;;;;;2.53;1.97;;;24.60;89.70;;;;;;5075507;28;20511;-90
2023/07/19 09:15:01;;;;;;;2.10;1.90;;;24.60;89.70;;;;;;5075621;28;20463;-91
2023/07/19 09:17:30;;;;;;;1.67;1.57;;;24.60;89.70;;;;;;5075533;28;20492;-90
2023/07/19 09:19:57;;;;;;;2.10;1.57;;;24.60;89.80;;;;;;5075586;28;20450;-89
2023/07/19 09:22:24;;;;;;;2.50;2.00;;;24.60;89.90;;;;;;5067180;28;20477;-90
2023/07/19 09:24:55;;;;;;;1.93;1.77;;;24.60;89.90;;;;;;5075354;28;20540;-90
2023/07/19 09:27:25;;;;;;;1.80;1.67;;;24.70;89.90;;;;;;5075267;28;20463;-89
2023/07/19 09:29:51;;;;;;;2.27;1.87;;;24.60;89.80;;;;;;5075415;28;20441;-89
2023/07/19 09:32:19;;;;;;;1.87;1.47;;;24.60;89.90;;;;;;5075475;28;20444;-90
2023/07/19 09:34:47;;;;;;;3.73;1.97;;;24.60;89.90;;;;;;5075421;28;20442;-89
2023/07/19 09:37:14;;;;;;;2.10;1.90;;;24.60;89.90;;;;;;5074852;28;20877;-91
2023/07/19 09:39:41;;;;;;;2.07;1.83;;;24.60;90.00;;;;;;5075170;28;20535;-89
2023/07/19 09:42:08;;;;;;;2.13;1.80;;;24.70;90.00;;;;;;5074885;28;20822;-91
2023/07/19 09:44:36;;;;;;;2.10;1.90;;;24.60;90.00;;;;;;5074879;28;20787;-89
2023/07/19 09:47:04;;;;;;;2.43;1.90;;;24.60;90.10;;;;;;5074929;28;20460;-88
2023/07/19 09:49:31;;;;;;;1.73;1.63;;;24.60;90.10;;;;;;5074945;28;20540;-90
2023/07/19 09:52:00;;;;;;;2.23;1.40;;;24.70;90.30;;;;;;5073819;28;20533;-90
2023/07/19 09:54:29;;;;;;;2.23;1.73;;;24.70;90.20;;;;;;5074834;28;20442;-90
2023/07/19 09:56:56;;;;;;;1.50;1.40;;;24.70;90.30;;;;;;5074442;28;20958;-89
2023/07/19 09:59:28;;;;;;;2.20;1.90;;;24.70;90.20;;;;;;5074749;28;20549;-89
2023/07/19 10:01:54;;;;;;;2.23;1.90;;;24.70;90.30;;;;;;5074510;28;20456;-89
2023/07/19 10:04:23;;;;;;;1.37;1.27;;;24.70;90.30;;;;;;5074982;28;20456;-93
2023/07/19 10:06:50;;;;;;;2.27;2.07;;;24.70;90.20;;;;;;5074385;28;20440;-90
2023/07/19 10:09:37;;;;;;;2.00;1.60;;;24.80;90.50;;;;;;5075468;28;20441;-93
2023/07/19 10:12:07;;;;;;;2.30;1.83;;;24.70;90.40;;;;;;5074797;28;20444;-89
2023/07/19 10:14:34;;;;;;;1.77;1.63;;;24.80;90.60;;;;;;5074478;28;20438;-89
2023/07/19 10:17:03;;;;;;;1.73;1.37;;;24.70;90.50;;;;;;5074454;28;20515;-89
2023/07/19 10:19:30;;;;;;;1.93;1.77;;;24.80;90.60;;;;;;5074293;28;20842;-91
2023/07/19 10:22:04;;;;;;;2.03;1.83;;;24.80;90.50;;;;;;5074514;28;20948;-90
2023/07/19 10:24:32;;;;;;;1.87;1.77;;;24.80;90.50;;;;;;5074304;28;20488;-91
2023/07/19 10:27:04;;;;;;;1.97;1.77;;;24.80;90.60;;;;;;5074246;28;20520;-90
2023/07/19 10:29:39;;;;;;;1.80;1.70;;;24.90;90.50;;;;;;5074208;28;20516;-91
2023/07/19 10:32:07;;;;;;;3.30;1.50;;;24.90;90.70;;;;;;5074041;28;20449;-90
2023/07/19 10:34:34;;;;;;;1.47;1.37;;;24.90;90.50;;;;;;5074119;28;20442;-90
2023/07/19 10:37:04;;;;;;;1.93;1.83;;;24.90;90.30;;;;;;5073796;28;20476;-90
2023/07/19 10:39:31;;;;;;;1.83;1.70;;;24.90;90.30;;;;;;5073678;28;20489;-90
2023/07/19 10:41:59;;;;;;;1.70;1.37;;;24.90;90.40;;;;;;5073972;28;20438;-90
2023/07/19 10:44:27;;;;;;;1.60;1.43;;;24.90;90.30;;;;;;5065977;28;20459;-90
2023/07/19 10:46:54;;;;;;;2.23;1.63;;;24.90;90.40;;;;;;5073771;28;20549;-89
2023/07/19 10:49:23;;;;;;;1.50;1.40;;;24.90;90.40;;;;;;5073916;28;20433;-89
2023/07/19 10:51:53;;;;;;;1.93;1.37;;;24.90;90.50;;;;;;5073816;28;20442;-90
2023/07/19 10:54:21;;;;;;;2.20;1.60;;;24.90;90.80;;;;;;5073788;28;20450;-90
2023/07/19 10:56:49;;;;;;;1.60;1.50;;;24.90;90.60;;;;;;5073691;28;20988;-90
2023/07/19 10:59:16;;;;;;;1.87;1.77;;;24.90;90.70;;;;;;5074263;28;20486;-90
2023/07/19 11:01:45;;;;;;;1.63;1.47;;;24.90;90.80;;;;;;5073494;28;20441;-90
2023/07/19 11:04:12;;;;;;;1.67;1.57;;;24.90;90.70;;;;;;5073974;28;20450;-90
2023/07/19 11:06:53;;;;;;;1.77;1.67;;;24.90;90.80;;;;;;5074075;28;20448;-90
2023/07/19 11:09:22;;;;;;;2.07;1.70;;;24.90;90.80;;;;;;5073519;28;20516;-90
2023/07/19 11:11:49;;;;;;;2.03;1.50;;;24.90;90.80;;;;;;5073834;28;20445;-91
2023/07/19 11:14:30;;;;;;;1.53;1.43;;;24.90;90.90;;;;;;5074546;28;20496;-91
2023/07/19 11:16:59;;;;;;;1.60;1.50;;;24.90;90.70;;;;;;5074863;28;20470;-91
2023/07/19 11:19:36;;;;;;;1.50;1.40;;;24.90;90.70;;;;;;5075390;28;20581;-92
2023/07/19 11:22:03;;;;;;;2.57;1.33;;;25.00;90.80;;;;;;5074600;28;20535;-91
2023/07/19 11:24:39;;;;;;;2.23;1.93;;;24.90;90.70;;;;;;5074702;28;20445;-90
2023/07/19 11:27:07;;;;;;;1.70;1.60;;;24.90;90.80;;;;;;5074660;28;20445;-96
2023/07/19 11:29:34;;;;;;;1.50;1.40;;;24.90;90.80;;;;;;5074608;28;20438;-90
2023/07/19 11:32:18;;;;;;;1.50;1.40;;;24.90;90.90;;;;;;5077419;28;20532;-91
2023/07/19 11:34:49;;;;;;;1.70;1.53;;;24.90;91.00;;;;;;5091021;28;20516;-90
2023/07/19 11:37:18;;;;;;;2.13;1.53;;;24.90;90.90;;;;;;5075203;28;20482;-91
2023/07/19 11:39:45;;;;;;;1.73;1.50;;;24.90;90.80;;;;;;5073461;28;20516;-90
2023/07/19 11:42:11;;;;;;;2.63;1.47;;;24.90;90.90;;;;;;5073191;28;20536;-90
2023/07/19 11:44:43;;;;;;;2.47;1.83;;;24.90;90.90;;;;;;5073249;28;20806;-91
2023/07/19 11:47:11;;;;;;;4.50;1.70;;;24.90;91.00;;;;;;5073409;28;20467;-92
2023/07/19 11:49:39;;;;;;;1.70;1.40;;;24.90;91.00;;;;;;5072978;28;20445;-91
2023/07/19 11:52:07;;;;;;;1.60;1.50;;;24.90;91.10;;;;;;5073209;28;20451;-90
2023/07/19 11:54:34;;;;;;;2.07;1.60;;;24.90;91.10;;;;;;5073315;28;20801;-91
2023/07/19 11:57:00;;;;;;;1.93;1.70;;;24.90;91.10;;;;;;5073051;28;20928;-92
2023/07/19 11:59:27;;;;;;;1.40;1.30;;;24.90;91.10;;;;;;5072506;28;20579;-90
2023/07/19 12:01:54;;;;;;;1.70;1.60;;;24.80;91.00;;;;;;5072657;28;20445;-90
2023/07/19 12:04:21;;;;;;;1.67;1.57;;;24.80;90.80;;;;;;5072646;28;20441;-90
2023/07/19 12:06:49;;;;;;;4.60;1.60;;;24.80;90.80;;;;;;5072560;28;20540;-90
2023/07/19 12:09:18;;;;;;;2.03;1.30;;;24.80;90.80;;;;;;5072442;28;20532;-90
2023/07/19 12:11:45;;;;;;;1.47;1.37;;;24.80;91.30;;;;;;5072676;28;20452;-91
2023/07/19 12:14:13;;;;;;;2.67;1.60;;;24.90;90.80;;;;;;5072896;28;20536;-90
2023/07/19 12:16:40;;;;;;;1.60;1.50;;;24.80;90.70;;;;;;5076284;28;20817;-90
2023/07/19 12:19:11;;;;;;;1.70;1.60;;;24.80;90.70;;;;;;5076510;28;20480;-90
2023/07/19 12:21:38;;;;;;;1.43;1.33;;;24.80;90.60;;;;;;5076604;28;20969;-90
2023/07/19 12:24:06;;;;;;;1.80;1.70;;;24.80;90.80;;;;;;5076523;28;20441;-90
2023/07/19 12:26:35;;;;;;;1.60;1.50;;;24.80;90.50;;;;;;5076252;28;20536;-90
2023/07/19 12:29:02;;;;;;;1.47;1.37;;;24.70;90.40;;;;;;5076436;28;20436;-91
2023/07/19 12:31:29;;;;;;;1.53;1.37;;;24.80;90.50;;;;;;5076346;28;20533;-90
2023/07/19 12:33:57;;;;;;;1.70;1.43;;;24.70;90.30;;;;;;5076353;28;20440;-90
2023/07/19 12:36:24;;;;;;;1.50;1.40;;;24.70;90.30;;;;;;5076099;28;20480;-90
2023/07/19 12:38:50;;;;;;;2.10;1.50;;;24.80;90.50;;;;;;5075929;28;20541;-90
2023/07/19 12:41:19;;;;;;;1.33;1.23;;;24.80;90.40;;;;;;5076287;28;20478;-90
2023/07/19 12:43:45;;;;;;;1.90;1.47;;;24.70;90.30;;;;;;5075886;28;20440;-92
2023/07/19 12:46:12;;;;;;;2.03;1.63;;;24.80;90.40;;;;;;5076095;28;20461;-90
2023/07/19 12:48:40;;;;;;;2.10;1.37;;;24.80;90.40;;;;;;5075776;28;20437;-91
2023/07/19 12:51:07;;;;;;;1.80;1.70;;;24.70;90.40;;;;;;5075712;28;20544;-91